HARTSFIELD - JACKSON ATLANTA INTL

KATL (ATL)
Atlanta, Georgia
Towered

Vatsim Metar:
KATL 161452Z 28009KT 10SM FEW014 SCT150 BKN250 14/10 A2979 RMK AO2 SLP085 60011 T01390100 51025

No ATC Online

Traffic

Inbound:
Ident
Type
Name
ETA
Phase
DAL2304
A320/L
Mason Hecquet
15:30 Z
Climb
DAL2312
B738
Fergus Miller EGPF
Boarding
DAL63
H/B744/L
Erik Peterson KGSP
Boarding
BAW297
H/B77L/H
Jamie Le Bas EGLL
22:18 Z
Climb
DAL85
H/B77L/L
Terrance Escontrias KBNA
22:04 Z
Cruse

Outbound:
Ident
Type
Name
Destination
Phase
AAL101
H/B788/L
Anthony Zangrilli KTLH
KMCO
Taxiing Out
SWA1145
B733/L
Erick OMARI
KJAX
Boarding
DAL743
A319/L
George Marinakis
MYEF
Boarding
DAL5427
H/B744/E
Wesley Joseph TAPA
KJFK
Climb